Coon Valley, WI

1:54 AM CDT on July 24, 2014 (GMT -0500)
Faith Farms Viroqua (KWIVIROQ3) Elev 1217 ft | 43.61 °N, 90.98 °W | Change Station

Current weather conditions updated 41 seconds ago

Clear
Clear
61.3 °F
Feels Like 61.3 °F
N
0.0
Wind Variable Wind from South
Gusts 0.0 mph

Today is forecast to be Warmer than yesterday. Showers late tonight.

Today
High -- | Low -- °F
--% Chance of Precip.
Yesterday
High -- | Low -- °F
Precip. -- in
5:44 AM 8:35 PM
Waning Crescent, 6% visible
Pressure 30.17 in
Visibility 10.0 miles
Clouds Clear
Dew Point 57 °F
Humidity 87%
Rainfall 0.00 in
Snow Depth Not available.
UV 0 out of 12
Pollen 6.20 out of 12
Air Quality Not available.
Flu Activity Not available.
METAR KY51 240635Z AUTO 12004KT 10SM CLR 16/14 A3017 RMK AO1 T01550141

More Conditions Fewer Conditions

Pressure 30.17 in
Visibility 10.0 miles
Clouds Clear
Dew Point 57 °F
Humidity 87%
Rainfall 0.00 in
Snow Depth Not available.
UV 0 out of 12
Pollen 6.20 out of 12
Air Quality Not available.
Flu Activity Not available.
METAR KY51 240635Z AUTO 12004KT 10SM CLR 16/14 A3017 RMK AO1 T01550141

More Conditions Fewer Conditions

10-Day Weather Forecast

Almanac

Astronomy

Jul. 24, 2014 Rise Set
Actual Time 5:44 AM CDT 8:35 PM CDT
Civil Twilight 5:10 AM CDT 9:09 PM CDT
Nautical Twilight 4:28 AM CDT 9:51 PM CDT
Astronomical Twilight 3:38 AM CDT 10:41 PM CDT
Moon 3:53 AM CDT 6:50 PM CDT
Length of Visible Light 15h 58m
Length of Day
14h 51m
Tomorrow will be 2m 1s shorter.
Waning Crescent, 6% of the Moon is Illuminated
Today
Waning Crescent
Jul 26
New
Aug 3
First Quarter
Aug 10
Full
Aug 17
Last Quarter

Today's Extremes

State Highs State Lows

Community

WunderPhotos

Upload Photos

1,736,950 photos uploaded!

Nearby

Snow Depth

Station Depth Elevation
No new snow has been reported.

Earthquake Activity

City Distance Mag. Time & Date
No recent earthquake activity has been reported nearby.
Minimum magnitude displayed is 2.5.

Coastal Water Temperatures

Place Temperature
No Stations Reporting

Nearby Weather Stations

Station Location Temp. Dew Point Humidity Wind Precip. Elev Updated Type
Faith Farms Viroqua, Viroqua, WI 61.3 °F 57 °F 87% South  at  0.0 mph 0.00 in / hr 1217 ft 1:53 AM CDT Normal
Oehler's Mill, La Crosse, WI 58.6 °F 57 °F 93% North  at  0.0 mph 0.00 in / hr 669 ft 1:54 AM CDT Rapid Fire
La Crosse - Downtown, La Crosse, WI 66.0 °F 62 °F 88% West  at  0.0 mph 0.00 in / hr 682 ft 1:52 AM CDT Normal
Gillette at George, La Crosse, WI 69.0 °F 60 °F 71% SSW  at  0.0 mph 0.00 in / hr 659 ft 1:54 AM CDT Rapid Fire
DeSoto WI, DeSoto, WI 65.8 °F 58 °F 76% NE  at  0.0 mph 0.00 in / hr 778 ft 1:54 AM CDT Rapid Fire
De Soto Wisconsin, De Soto, WI 60.2 °F 58 °F 94% ENE  at  0.0 mph 0.00 in / hr 761 ft 1:54 AM CDT Rapid Fire
Holmen, Holmen, WI 60.3 °F 56 °F 85% ESE  at  0.0 mph 0.00 in / hr 705 ft 1:54 AM CDT Rapid Fire

Show More Stations Show Fewer Stations